createdAt,value
2022-10-22T00:00:08.982Z,100536.44
2022-10-22T00:02:35.809Z,100550.53
2022-10-22T00:05:02.482Z,100540.56
2022-10-22T00:07:29.122Z,100553.31
2022-10-22T00:09:55.708Z,100552.72
2022-10-22T00:12:22.552Z,100544.44
2022-10-22T00:14:49.566Z,100545.41
2022-10-22T00:17:17.231Z,100561.06
2022-10-22T00:19:43.940Z,100554.53
2022-10-22T00:22:11.944Z,100554.41
2022-10-22T00:24:39.289Z,100559.38
2022-10-22T00:27:07.389Z,100562.63
2022-10-22T00:29:34.112Z,100566.16
2022-10-22T00:32:00.748Z,100559.38
2022-10-22T00:34:27.655Z,100558.50
2022-10-22T00:36:57.370Z,100560.44
2022-10-22T00:39:25.354Z,100552.81
2022-10-22T00:41:58.491Z,100559.88
2022-10-22T00:45:02.866Z,100564.22
2022-10-22T00:47:54.512Z,100549.78
2022-10-22T00:50:25.293Z,100548.69
2022-10-22T00:52:51.995Z,100541.25
2022-10-22T00:55:19.631Z,100544.09
2022-10-22T00:57:46.383Z,100543.44
2022-10-22T01:00:13.771Z,100538.72
2022-10-22T01:02:40.507Z,100553.31
2022-10-22T01:05:07.732Z,100548.47
2022-10-22T01:07:45.091Z,100545.06
2022-10-22T01:10:21.791Z,100551.63
2022-10-22T01:13:10.312Z,100546.03
2022-10-22T01:15:48.721Z,100541.63
2022-10-22T01:18:38.736Z,100540.69
2022-10-22T01:21:30.173Z,100544.31
2022-10-22T01:24:19.757Z,100543.25
2022-10-22T01:26:58.556Z,100540.94
2022-10-22T01:29:29.708Z,100530.34
2022-10-22T01:32:03.206Z,100537.88
2022-10-22T01:34:31.022Z,100535.56
2022-10-22T01:36:59.566Z,100535.22
2022-10-22T01:39:27.695Z,100534.09
2022-10-22T01:41:56.231Z,100530.00
2022-10-22T01:47:05.000Z,100528.06
2022-10-22T01:49:41.825Z,100531.44
2022-10-22T01:52:19.897Z,100532.91
2022-10-22T01:55:01.856Z,100541.53
2022-10-22T01:57:48.610Z,100525.97
2022-10-22T02:00:17.605Z,100526.94
2022-10-22T02:02:50.976Z,100519.66
2022-10-22T02:05:23.460Z,100517.47
2022-10-22T02:07:53.167Z,100525.38
2022-10-22T02:10:20.316Z,100525.25
2022-10-22T02:12:51.150Z,100530.97
2022-10-22T02:15:19.206Z,100529.13
2022-10-22T02:17:46.671Z,100533.50
2022-10-22T02:20:17.981Z,100528.91
2022-10-22T02:22:44.792Z,100524.66
2022-10-22T02:25:11.851Z,100531.19
2022-10-22T02:27:45.722Z,100523.53
2022-10-22T02:33:04.591Z,100532.16
2022-10-22T02:35:31.553Z,100535.31
2022-10-22T02:37:59.392Z,100535.59
2022-10-22T02:40:26.526Z,100532.91
2022-10-22T02:42:53.384Z,100537.41
2022-10-22T02:45:20.789Z,100530.97
2022-10-22T02:47:47.591Z,100536.41
2022-10-22T02:50:14.464Z,100542.50
2022-10-22T02:52:41.317Z,100538.84
2022-10-22T02:55:09.042Z,100544.56
2022-10-22T02:57:35.652Z,100547.34
2022-10-22T03:00:02.260Z,100544.19
2022-10-22T03:02:28.870Z,100551.72
2022-10-22T03:04:55.481Z,100546.03
2022-10-22T03:07:22.128Z,100548.84
2022-10-22T03:09:48.884Z,100551.50
2022-10-22T03:12:15.482Z,100556.84
2022-10-22T03:14:42.105Z,100554.78
2022-10-22T03:17:08.832Z,100545.66
2022-10-22T03:19:35.875Z,100547.72
2022-10-22T03:22:08.279Z,100547.59
2022-10-22T03:24:43.147Z,100543.34
2022-10-22T03:27:10.336Z,100551.63
2022-10-22T03:29:39.341Z,100558.56
2022-10-22T03:32:06.526Z,100558.41
2022-10-22T03:34:33.100Z,100564.97
2022-10-22T03:37:00.700Z,100566.09
2022-10-22T03:39:30.017Z,100566.91
2022-10-22T03:41:56.715Z,100565.81
2022-10-22T03:44:23.992Z,100567.28
2022-10-22T03:46:50.727Z,100563.38
2022-10-22T03:49:17.447Z,100568.97
2022-10-22T03:51:44.113Z,100568.72
2022-10-22T03:54:10.765Z,100572.72
2022-10-22T03:56:37.423Z,100569.56
2022-10-22T03:59:04.476Z,100575.41
2022-10-22T04:01:31.597Z,100573.69
2022-10-22T04:03:58.996Z,100574.31
2022-10-22T04:06:25.763Z,100579.19
2022-10-22T04:08:52.713Z,100580.84
2022-10-22T04:11:19.325Z,100583.03
2022-10-22T04:13:45.903Z,100588.88
2022-10-22T04:16:19.704Z,100582.81
2022-10-22T04:18:47.464Z,100583.41
2022-10-22T04:21:16.149Z,100586.72
2022-10-22T04:23:47.407Z,100594.47
2022-10-22T04:26:14.384Z,100600.06
2022-10-22T04:28:41.437Z,100594.84
2022-10-22T04:31:12.978Z,100609.91
2022-10-22T04:33:40.334Z,100603.59
2022-10-22T04:36:09.364Z,100604.56
2022-10-22T04:38:36.139Z,100599.31
2022-10-22T04:41:21.056Z,100601.63
2022-10-22T04:43:48.224Z,100604.19
2022-10-22T04:46:16.599Z,100608.69
2022-10-22T04:48:44.311Z,100602.38
2022-10-22T04:51:13.748Z,100608.78
2022-10-22T04:53:43.201Z,100604.69
2022-10-22T04:56:22.226Z,100610.72
2022-10-22T04:58:53.122Z,100612.22
2022-10-22T05:01:22.046Z,100610.63
2022-10-22T05:03:49.894Z,100613.41
2022-10-22T05:06:17.045Z,100608.31
2022-10-22T05:08:43.777Z,100616.69
2022-10-22T05:11:12.249Z,100615.38
2022-10-22T05:13:38.940Z,100618.16
2022-10-22T05:16:05.840Z,100624.81
2022-10-22T05:18:35.831Z,100625.66
2022-10-22T05:21:03.181Z,100626.13
2022-10-22T05:23:29.783Z,100630.25
2022-10-22T05:25:56.385Z,100628.66
2022-10-22T05:28:23.101Z,100637.91
2022-10-22T05:30:54.374Z,100635.03
2022-10-22T05:33:24.074Z,100639.13
2022-10-22T05:35:51.090Z,100637.31
2022-10-22T05:38:18.667Z,100632.72
2022-10-22T05:40:45.524Z,100639.03
2022-10-22T05:43:12.541Z,100643.72
2022-10-22T05:45:42.564Z,100637.69
2022-10-22T05:48:09.901Z,100641.06
2022-10-22T05:50:37.463Z,100651.63
2022-10-22T05:53:07.541Z,100648.84
2022-10-22T05:55:38.968Z,100652.22
2022-10-22T05:58:05.537Z,100659.28
2022-10-22T06:00:34.545Z,100660.38
2022-10-22T06:03:01.126Z,100662.41
2022-10-22T06:05:27.745Z,100664.13
2022-10-22T06:07:57.156Z,100661.47
2022-10-22T06:10:24.014Z,100663.16
2022-10-22T06:12:50.688Z,100666.59
2022-10-22T06:15:18.399Z,100667.06
2022-10-22T06:17:45.559Z,100671.94
2022-10-22T06:20:12.957Z,100671.94
2022-10-22T06:22:40.163Z,100677.25
2022-10-22T06:25:08.532Z,100683.47
2022-10-22T06:27:35.261Z,100685.28
2022-10-22T06:30:01.935Z,100683.31
2022-10-22T06:32:28.516Z,100686.94
2022-10-22T06:35:18.443Z,100699.34
2022-10-22T06:37:45.030Z,100701.31
2022-10-22T06:40:13.389Z,100700.94
2022-10-22T06:42:40.206Z,100697.06
2022-10-22T06:45:07.883Z,100711.03
2022-10-22T06:47:34.502Z,100713.34
2022-10-22T06:50:01.084Z,100720.41
2022-10-22T06:52:27.691Z,100723.94
2022-10-22T06:54:54.292Z,100725.38
2022-10-22T06:57:20.881Z,100735.81
2022-10-22T06:59:47.624Z,100736.56
2022-10-22T07:02:14.618Z,100740.19
2022-10-22T07:04:41.308Z,100749.69
2022-10-22T07:07:07.881Z,100742.53
2022-10-22T07:09:34.474Z,100745.06
2022-10-22T07:12:01.100Z,100747.31
2022-10-22T07:14:27.733Z,100741.84
2022-10-22T07:16:54.372Z,100756.56
2022-10-22T07:19:20.959Z,100759.59
2022-10-22T07:21:47.557Z,100761.91
2022-10-22T07:24:14.171Z,100769.59
2022-10-22T07:26:40.832Z,100774.19
2022-10-22T07:29:07.538Z,100768.75
2022-10-22T07:31:34.134Z,100778.47
2022-10-22T07:34:00.747Z,100777.13
2022-10-22T07:36:27.466Z,100778.69
2022-10-22T07:38:56.747Z,100779.34
2022-10-22T07:41:23.995Z,100778.09
2022-10-22T07:43:51.307Z,100790.41
2022-10-22T07:46:18.737Z,100788.69
2022-10-22T07:48:45.544Z,100793.78
2022-10-22T07:51:12.251Z,100796.47
2022-10-22T07:53:39.110Z,100792.72
2022-10-22T07:56:06.168Z,100793.31
2022-10-22T07:58:32.847Z,100793.06
2022-10-22T08:01:01.072Z,100802.31
2022-10-22T08:03:28.610Z,100816.41
2022-10-22T08:05:55.428Z,100812.53
2022-10-22T08:08:24.881Z,100802.56
2022-10-22T08:10:54.067Z,100813.72
2022-10-22T08:13:20.713Z,100820.41
2022-10-22T08:15:47.410Z,100817.63
2022-10-22T08:18:15.674Z,100822.97
2022-10-22T08:20:42.455Z,100834.53
2022-10-22T08:23:09.119Z,100833.78
2022-10-22T08:25:36.165Z,100836.63
2022-10-22T08:28:02.862Z,100841.00
2022-10-22T08:30:29.945Z,100848.41
2022-10-22T08:32:56.762Z,100857.41
2022-10-22T08:35:26.014Z,100857.53
2022-10-22T08:37:52.609Z,100856.69
2022-10-22T08:40:39.787Z,100858.38
2022-10-22T08:43:27.891Z,100859.38
2022-10-22T08:45:57.404Z,100859.22
2022-10-22T08:48:29.956Z,100864.56
2022-10-22T08:50:57.330Z,100869.91
2022-10-22T08:53:32.699Z,100861.91
2022-10-22T08:55:59.327Z,100859.97
2022-10-22T08:58:40.529Z,100873.81
2022-10-22T09:01:14.077Z,100869.09
2022-10-22T09:03:42.940Z,100877.72
2022-10-22T09:06:18.927Z,100873.13
2022-10-22T09:08:47.007Z,100893.91
2022-10-22T09:11:29.171Z,100878.81
2022-10-22T09:13:57.374Z,100880.28
2022-10-22T09:16:36.153Z,100895.88
2022-10-22T09:19:18.819Z,100884.19
2022-10-22T09:22:06.425Z,100893.41
2022-10-22T09:24:47.728Z,100896.09
2022-10-22T09:27:31.349Z,100901.69
2022-10-22T09:29:58.053Z,100894.53
2022-10-22T09:32:25.711Z,100887.22
2022-10-22T09:34:56.534Z,100899.53
2022-10-22T09:37:26.900Z,100907.56
2022-10-22T09:40:05.291Z,100901.59
2022-10-22T09:42:33.755Z,100908.03
2022-10-22T09:45:00.681Z,100903.28
2022-10-22T09:47:43.381Z,100897.50
2022-10-22T09:50:41.408Z,100899.91
2022-10-22T09:53:27.316Z,100908.19
2022-10-22T09:58:22.942Z,100913.41
2022-10-22T10:00:59.021Z,100930.06
2022-10-22T10:03:28.829Z,100924.84
2022-10-22T10:06:21.020Z,100924.25
2022-10-22T10:08:48.349Z,100926.81
2022-10-22T10:11:39.303Z,100923.00
2022-10-22T10:14:21.831Z,100932.53
2022-10-22T10:17:23.583Z,100936.06
2022-10-22T10:20:17.978Z,100934.34
2022-10-22T10:22:58.080Z,100935.22
2022-10-22T10:25:52.320Z,100944.81
2022-10-22T10:28:54.776Z,100942.25
2022-10-22T10:31:42.858Z,100935.53
2022-10-22T10:34:39.380Z,100938.44
2022-10-22T10:37:29.561Z,100945.38
2022-10-22T10:40:13.115Z,100956.34
2022-10-22T10:42:55.733Z,100947.47
2022-10-22T10:45:27.865Z,100955.25
2022-10-22T10:48:10.284Z,100958.41
2022-10-22T10:51:06.494Z,100962.31
2022-10-22T10:53:52.579Z,100959.88
2022-10-22T10:56:47.995Z,100962.31
2022-10-22T10:59:18.097Z,100968.66
2022-10-22T11:02:01.475Z,100956.84
2022-10-22T11:05:07.090Z,100972.41
2022-10-22T11:08:03.062Z,100975.94
2022-10-22T11:10:38.014Z,100968.53
2022-10-22T11:13:23.293Z,100967.91
2022-10-22T11:15:56.947Z,100972.16
2022-10-22T11:19:06.046Z,100973.75
2022-10-22T11:21:40.146Z,100978.97
2022-10-22T11:24:20.860Z,100972.91
2022-10-22T11:26:52.312Z,100974.97
2022-10-22T11:29:44.639Z,100979.72
2022-10-22T11:32:16.104Z,100977.06
2022-10-22T11:34:47.410Z,100983.88
2022-10-22T11:37:14.492Z,100985.47
2022-10-22T11:39:53.916Z,100983.25
2022-10-22T11:42:30.488Z,100980.09
2022-10-22T11:45:06.313Z,100977.28
2022-10-22T11:48:12.633Z,100988.00
2022-10-22T11:50:47.180Z,100977.53
2022-10-22T11:53:13.823Z,100987.78
2022-10-22T11:55:51.506Z,100985.94
2022-10-22T11:58:39.582Z,100991.03
2022-10-22T12:01:09.279Z,100989.09
2022-10-22T12:03:41.060Z,100984.72
2022-10-22T12:06:15.133Z,100983.75
2022-10-22T12:08:57.865Z,100984.22
2022-10-22T12:11:50.019Z,100985.34
2022-10-22T12:14:30.807Z,100982.03
2022-10-22T12:17:13.131Z,100989.94
2022-10-22T12:19:42.851Z,100980.94
2022-10-22T12:22:34.824Z,100983.34
2022-10-22T12:25:23.167Z,100973.38
2022-10-22T12:27:55.141Z,100970.56
2022-10-22T12:30:30.023Z,100955.94
2022-10-22T12:33:00.359Z,100962.38
2022-10-22T12:35:30.126Z,100968.81
2022-10-22T12:38:18.927Z,100965.28
2022-10-22T12:40:48.444Z,100969.16
2022-10-22T12:43:32.225Z,100954.28
2022-10-22T12:45:59.643Z,100959.38
2022-10-22T12:48:40.537Z,100958.06
2022-10-22T12:51:09.543Z,100958.31
2022-10-22T12:53:46.306Z,100966.50
2022-10-22T12:56:33.936Z,100961.88
2022-10-22T12:59:10.665Z,100950.28
2022-10-22T13:01:39.369Z,100966.88
2022-10-22T13:04:32.408Z,100964.06
2022-10-22T13:07:18.250Z,100966.50
2022-10-22T13:09:58.226Z,100970.09
2022-10-22T13:12:27.733Z,100978.66
2022-10-22T13:14:54.583Z,100982.81
2022-10-22T13:17:42.233Z,100983.66
2022-10-22T13:20:21.437Z,100971.34
2022-10-22T13:23:06.664Z,100975.38
2022-10-22T13:25:35.513Z,100981.84
2022-10-22T13:28:18.549Z,100980.16
2022-10-22T13:30:53.874Z,100979.31
2022-10-22T13:33:36.326Z,100981.84
2022-10-22T13:36:03.792Z,100986.59
2022-10-22T13:38:30.597Z,100981.97
2022-10-22T13:41:03.326Z,100973.16
2022-10-22T13:43:29.929Z,100976.19
2022-10-22T13:45:59.056Z,100981.69
2022-10-22T13:48:26.660Z,100985.50
2022-10-22T13:50:53.780Z,100987.44
2022-10-22T13:53:25.992Z,100989.53
2022-10-22T13:55:52.870Z,100985.16
2022-10-22T13:58:21.858Z,100993.78
2022-10-22T14:00:55.900Z,100990.38
2022-10-22T14:03:25.379Z,100986.84
2022-10-22T14:05:52.059Z,100994.03
2022-10-22T14:08:21.390Z,100980.88
2022-10-22T14:10:48.300Z,100998.94
2022-10-22T14:13:16.821Z,100992.84
2022-10-22T14:15:56.033Z,100986.50
2022-10-22T14:18:30.839Z,100982.13
2022-10-22T14:21:00.220Z,100982.97
2022-10-22T14:23:29.084Z,100991.13
2022-10-22T14:25:58.609Z,100979.44
2022-10-22T14:28:27.081Z,100976.47
2022-10-22T14:30:54.631Z,100978.94
2022-10-22T14:33:30.380Z,100967.94
2022-10-22T14:35:59.843Z,100971.22
2022-10-22T14:38:26.806Z,100974.88
2022-10-22T14:40:54.870Z,100980.00
2022-10-22T14:43:27.222Z,100977.16
2022-10-22T14:45:54.087Z,100982.03
2022-10-22T14:48:20.805Z,100980.19
2022-10-22T14:50:48.216Z,100984.72
2022-10-22T14:53:16.885Z,100989.84
2022-10-22T14:55:44.668Z,100986.81
2022-10-22T14:58:12.395Z,100991.31
2022-10-22T15:00:41.274Z,100996.09
2022-10-22T15:03:08.090Z,100993.75
2022-10-22T15:05:36.384Z,100997.38
2022-10-22T15:08:05.942Z,100996.63
2022-10-22T15:10:36.066Z,101001.34
2022-10-22T15:13:02.675Z,101006.97
2022-10-22T15:15:34.003Z,100994.59
2022-10-22T15:18:02.052Z,101005.84
2022-10-22T15:20:29.042Z,101007.69
2022-10-22T15:23:03.841Z,100993.53
2022-10-22T15:25:30.715Z,101002.44
2022-10-22T15:28:01.815Z,100998.44
2022-10-22T15:30:31.543Z,101012.97
2022-10-22T15:32:58.296Z,101010.22
2022-10-22T15:35:30.536Z,101011.47
2022-10-22T15:37:57.238Z,101007.72
2022-10-22T15:40:27.470Z,101012.50
2022-10-22T15:43:32.262Z,101010.06
2022-10-22T15:46:08.844Z,101003.72
2022-10-22T15:48:38.045Z,101012.84
2022-10-22T15:51:10.286Z,101022.88
2022-10-22T15:53:39.179Z,101008.28
2022-10-22T15:56:06.031Z,101006.44
2022-10-22T15:58:33.014Z,101015.13
2022-10-22T16:01:07.350Z,101020.47
2022-10-22T16:03:34.717Z,101025.09
2022-10-22T16:06:04.929Z,101022.94
2022-10-22T16:08:31.614Z,101023.31
2022-10-22T16:11:01.635Z,101034.41
2022-10-22T16:13:30.327Z,101028.56
2022-10-22T16:15:59.642Z,101025.03
2022-10-22T16:18:39.344Z,101029.91
2022-10-22T16:21:11.951Z,101031.72
2022-10-22T16:23:38.725Z,101029.63
2022-10-22T16:26:05.533Z,101026.59
2022-10-22T16:31:06.378Z,101028.44
2022-10-22T16:33:41.275Z,101025.03
2022-10-22T16:36:14.556Z,101018.00
2022-10-22T16:38:41.328Z,101019.56
2022-10-22T16:41:25.345Z,101018.09
2022-10-22T16:43:55.181Z,101021.63
2022-10-22T16:46:22.940Z,101027.72
2022-10-22T16:48:56.178Z,101022.34
2022-10-22T16:51:24.735Z,101025.19
2022-10-22T16:53:52.355Z,101030.66
2022-10-22T16:56:19.099Z,101032.00
2022-10-22T16:58:48.011Z,101034.31
2022-10-22T17:01:18.009Z,101037.47
2022-10-22T17:03:45.070Z,101039.06
2022-10-22T17:06:12.099Z,101044.66
2022-10-22T17:08:42.358Z,101047.81
2022-10-22T17:11:13.589Z,101052.06
2022-10-22T17:13:42.005Z,101048.41
2022-10-22T17:16:10.703Z,101048.25
2022-10-22T17:18:39.121Z,101056.09
2022-10-22T17:23:58.361Z,101055.84
2022-10-22T17:29:09.985Z,101064.78
2022-10-22T17:31:42.930Z,101055.28
2022-10-22T17:34:16.137Z,101066.25
2022-10-22T17:36:43.446Z,101063.56
2022-10-22T17:39:14.128Z,101065.41
2022-10-22T17:41:52.862Z,101070.34
2022-10-22T17:44:25.798Z,101074.59
2022-10-22T17:46:52.565Z,101079.44
2022-10-22T17:49:29.694Z,101071.66
2022-10-22T17:52:03.457Z,101075.75
2022-10-22T17:54:40.404Z,101075.25
2022-10-22T17:57:10.428Z,101070.00
2022-10-22T17:59:47.200Z,101070.22
2022-10-22T18:02:16.617Z,101070.22
2022-10-22T18:04:43.991Z,101069.00
2022-10-22T18:07:11.012Z,101069.19
2022-10-22T18:09:44.914Z,101071.31
2022-10-22T18:12:19.027Z,101066.06
2022-10-22T18:14:47.182Z,101060.31
2022-10-22T18:20:00.805Z,101076.91
2022-10-22T18:22:27.587Z,101075.44
2022-10-22T18:24:54.444Z,101071.09
2022-10-22T18:27:21.107Z,101068.00
2022-10-22T18:29:49.987Z,101078.59
2022-10-22T18:32:16.903Z,101072.50
2022-10-22T18:34:43.642Z,101070.25
2022-10-22T18:37:10.324Z,101072.19
2022-10-22T18:39:37.042Z,101071.53
2022-10-22T18:42:06.346Z,101066.53
2022-10-22T18:44:34.973Z,101062.03
2022-10-22T18:47:01.635Z,101070.81
2022-10-22T18:49:28.250Z,101063.75
2022-10-22T18:51:54.893Z,101063.53
2022-10-22T18:54:23.534Z,101065.13
2022-10-22T18:56:51.530Z,101073.03
2022-10-22T18:59:20.742Z,101073.34
2022-10-22T19:01:47.632Z,101070.06
2022-10-22T19:04:14.417Z,101081.94
2022-10-22T19:06:45.240Z,101077.03
2022-10-22T19:09:13.726Z,101077.75
2022-10-22T19:11:40.470Z,101079.38
2022-10-22T19:14:07.184Z,101074.53
2022-10-22T19:16:35.324Z,101069.44
2022-10-22T19:22:59.739Z,101064.63
2022-10-22T19:25:45.808Z,101063.13
2022-10-22T19:28:38.980Z,101067.31
2022-10-22T19:31:07.410Z,101061.88
2022-10-22T19:33:37.130Z,101057.50
2022-10-22T19:36:05.732Z,101054.38
2022-10-22T19:38:32.409Z,101049.66
2022-10-22T19:40:59.006Z,101044.84
2022-10-22T19:43:26.691Z,101046.72
2022-10-22T19:45:53.270Z,101053.44
2022-10-22T19:48:19.916Z,101055.34
2022-10-22T19:50:47.141Z,101055.44
2022-10-22T19:53:14.336Z,101046.88
2022-10-22T19:55:44.871Z,101055.00
2022-10-22T19:58:12.198Z,101054.59
2022-10-22T20:00:39.172Z,101057.91
2022-10-22T20:03:05.977Z,101062.41
2022-10-22T20:05:32.614Z,101058.34
2022-10-22T20:07:59.551Z,101065.19
2022-10-22T20:10:26.652Z,101064.13
2022-10-22T20:12:53.363Z,101069.66
2022-10-22T20:15:21.605Z,101065.94
2022-10-22T20:17:48.549Z,101059.31
2022-10-22T20:20:17.328Z,101055.25
2022-10-22T20:22:44.504Z,101053.75
2022-10-22T20:25:12.423Z,101054.50
2022-10-22T20:27:39.677Z,101047.97
2022-10-22T20:30:07.289Z,101054.50
2022-10-22T20:32:37.220Z,101062.19
2022-10-22T20:35:04.747Z,101069.75
2022-10-22T20:37:31.606Z,101072.22
2022-10-22T20:39:58.415Z,101078.19
2022-10-22T20:42:25.107Z,101071.59
2022-10-22T20:44:51.893Z,101068.50
2022-10-22T20:47:18.626Z,101068.94
2022-10-22T20:49:51.386Z,101068.81
2022-10-22T20:52:19.189Z,101064.66
2022-10-22T20:54:46.033Z,101066.38
2022-10-22T20:57:13.526Z,101064.22
2022-10-22T20:59:40.153Z,101060.69
2022-10-22T21:02:06.919Z,101049.91
2022-10-22T21:04:34.147Z,101047.00
2022-10-22T21:07:00.905Z,101056.41
2022-10-22T21:09:28.131Z,101061.88
2022-10-22T21:14:23.403Z,101073.00
2022-10-22T21:16:51.263Z,101068.09
2022-10-22T21:19:19.601Z,101067.22
2022-10-22T21:21:46.193Z,101063.47
2022-10-22T21:24:13.101Z,101069.56
2022-10-22T21:26:41.429Z,101069.22
2022-10-22T21:29:09.022Z,101069.56
2022-10-22T21:31:35.907Z,101061.34
2022-10-22T21:34:02.618Z,101063.16
2022-10-22T21:36:29.273Z,101067.22
2022-10-22T21:38:55.968Z,101065.59
2022-10-22T21:41:24.084Z,101064.31
2022-10-22T21:43:51.209Z,101057.59
2022-10-22T21:46:23.436Z,101061.97
2022-10-22T21:49:02.202Z,101067.31
2022-10-22T21:51:31.301Z,101067.31
2022-10-22T21:53:58.259Z,101072.34
2022-10-22T21:56:30.078Z,101078.09
2022-10-22T21:58:56.708Z,101079.28
2022-10-22T22:01:23.521Z,101075.44
2022-10-22T22:03:51.553Z,101070.75
2022-10-22T22:06:22.750Z,101064.97
2022-10-22T22:08:51.193Z,101068.38
2022-10-22T22:11:20.835Z,101062.75
2022-10-22T22:13:48.876Z,101073.09
2022-10-22T22:16:22.537Z,101063.91
2022-10-22T22:18:52.376Z,101056.31
2022-10-22T22:21:20.762Z,101048.31
2022-10-22T22:23:49.079Z,101048.00
2022-10-22T22:26:18.995Z,101054.06
2022-10-22T22:28:45.693Z,101057.50
2022-10-22T22:31:33.464Z,101049.91
2022-10-22T22:34:04.824Z,101052.59
2022-10-22T22:36:40.007Z,101053.34
2022-10-22T22:39:08.043Z,101043.72
2022-10-22T22:41:34.850Z,101047.25
2022-10-22T22:44:02.136Z,101056.31
2022-10-22T22:46:28.776Z,101052.34
2022-10-22T22:48:55.392Z,101055.78
2022-10-22T22:51:22.119Z,101049.91
2022-10-22T22:53:48.960Z,101052.59
2022-10-22T22:56:18.419Z,101057.41
2022-10-22T22:58:45.214Z,101062.59
2022-10-22T23:01:22.208Z,101045.19
2022-10-22T23:03:53.611Z,101042.00
2022-10-22T23:06:20.204Z,101047.66
2022-10-22T23:08:50.219Z,101041.16
2022-10-22T23:11:17.007Z,101038.56
2022-10-22T23:13:43.649Z,101038.47
2022-10-22T23:16:18.404Z,101039.34
2022-10-22T23:18:45.940Z,101037.63
2022-10-22T23:21:14.643Z,101034.94
2022-10-22T23:23:49.859Z,101020.66
2022-10-22T23:26:23.058Z,101029.41
2022-10-22T23:28:49.727Z,101035.03
2022-10-22T23:31:18.120Z,101025.44
2022-10-22T23:33:45.206Z,101020.72
2022-10-22T23:36:12.493Z,101023.84
2022-10-22T23:38:39.892Z,101025.34
2022-10-22T23:41:06.774Z,101021.94
2022-10-22T23:43:36.217Z,101018.72
2022-10-22T23:46:07.049Z,101018.72
2022-10-22T23:48:34.352Z,101017.22
2022-10-22T23:51:06.081Z,101008.47
2022-10-22T23:53:32.784Z,101008.38
2022-10-22T23:56:04.301Z,101009.13
2022-10-22T23:58:31.026Z,101011.25
